Aviation Digital Data Service (ADDS)

Output produced by METARs form (0324 UTC 21 September 2017)
found at http://www.aviationweather.gov/adds/metars/
 
UNAA 210300Z 16003MPS CAVOK 08/05 Q1015 R20/190060 NOSIG RMK QFE739
TAF UNAA 210200Z 2103/2203 16003G10MPS 9999 SCT030CB 
     TEMPO 2105/2121 23008G14MPS 3100 -SHRA BKN015CB
       
URWA 210300Z VRB01MPS CAVOK 16/15 Q1017 R09/010070 NOSIG RMK QFE765/1020
TAF URWA 210200Z 2103/2112 12003G08MPS CAVOK 
     BECMG 2105/2106 15008G14MPS
       
USCC 210300Z 27004MPS CAVOK 10/08 Q1019 R27/000060 NOSIG RMK QFE744
TAF USCC 210200Z 2103/2203 31006MPS 9999 SCT030CB 
     TEMPO 2106/2115 3100 -SHRA BKN011CB
       
UNBB 210300Z 22007MPS 9999 SCT030CB 12/09 Q1006 R24/190258 NOSIG RMK QFE732
TAF UNBB 210200Z 2103/2203 19006G12MPS 4000 -SHRA BKN010CB 
     TEMPO 2103/2108 24008G14MPS 1200 SHRA SCT002 BKN010CB 
     PROB40 
     TEMPO 2103/2109 TS 
     BECMG 2108/2109 28006G12MPS 
     TEMPO 2109/2203 3000 -SHRA SCT003 BKN010CB
       
UWKE 210300Z 32005MPS 9999 OVC026 11/08 Q1024 R21/090070 NOSIG RMK QFE751/1001
TAF UWKE 210145Z 2103/2203 32003G09MPS 9999 SCT020 
     TEMPO 2103/2106 36005G10MPS 1000 BR BKN003 
     TEMPO 2106/2118 36006G11MPS
       
UUOB 210300Z 06003MPS CAVOK 12/07 Q1017 R11/090060 NOSIG
TAF UUOB 210159Z 2103/2112 08006G11MPS 9999 SCT030 BKN100
       
USPP 210300Z 32003MPS 290V350 9999 OVC018 09/06 Q1022 R21/290150 NOSIG RMK QFE755
TAF USPP 210158Z 2103/2203 33006MPS 9999 BKN011 OVC100 
     TEMPO 2103/2109 3100 -SHRA BR SCT005 BKN015CB 
     BECMG 2115/2117 03003MPS
       
UIBB 210300Z 31004MPS 280V350 9999 BKN030 05/00 Q1014 R30/CLRD60 NOSIG RMK QFE717/0956
TAF UIBB 210200Z 2103/2203 31003G08MPS 5000 -SHRA BKN015CB
       
UUBP 210300Z 07005MPS 9999 BKN048CB 11/08 Q1018 R34/190060 NOSIG RMK QFE746/0995
UWKS 210300Z 28002MPS 9999 FEW030 07/06 Q1026 R24/010060 NOSIG RMK QFE755
TAF UWKS 210144Z 2103/2112 34003G08MPS 9999 SCT020 
     TEMPO 2103/2105 3100 BR SCT012
       
UUOO 210300Z 06002MPS CAVOK 10/06 Q1020 R12/090070 NOSIG RMK QFE751
TAF UUOO 210200Z 2103/2112 08003MPS CAVOK
       
UEEE 210300Z 26003MPS 9999 BKN018CB 04/00 Q1010 R23L/09//60 NOSIG RMK QFE749
TAF UEEE 210200Z 2103/2209 24003MPS 9999 BKN020CB OVC070 
     TEMPO 2103/2112 -SHRA SCT006 BKN015CB OVC070
       
UUDD 210300Z 03002MPS 020V080 CAVOK 10/08 Q1026 R32L/010095 NOSIG
TAF UUDD 210159Z 2103/2209 07003MPS 9999 BKN020 TX16/2112Z TN06/2203Z 
     TEMPO 2103/2110 -SHRA SCT007 SCT020CB 
     BECMG 2106/2108 07009MPS 
     TEMPO 2111/2209 09014MPS
       
URWW 210300Z 06005MPS CAVOK 15/10 Q1017 R06/010070 NOSIG
TAF URWW 210159Z 2103/2112 06007G13MPS CAVOK 
     TEMPO 2103/2106 09003G08MPS 3100 BR BKN011 
     TEMPO 2106/2112 09008G14MPS
       
UHBB 210300Z 21003MPS 9999 FEW033 22/12 Q1006 R36/090060 NOSIG RMK QFE737/0983
TAF UHBB 210145Z 2103/2203 18004MPS 9999 SCT030CB 
     BECMG 2121/2123 17006G11MPS
       
UIII 210300Z 32005MPS 9999 BKN018CB 09/04 Q1011 R30/CLRD60 NOSIG RMK QFE714/0952
TAF UIII 210200Z 2103/2203 30007MPS 9999 BKN010CB 
     TEMPO 2103/2109 32010G15MPS -SHRA 
     BECMG 2111/2113 VRB01MPS NSC
       
UIAA 210300Z 04006MPS 9999 FEW043CB 15/05 Q0993 R29/CLRD70 NOSIG RMK QFE687/0916
TAF UIAA 210200Z 2103/2203 02006G12MPS 9999 SCT033CB 
     FM210900 32008G15MPS 2900 -SHRA BKN014CB
       
UWKD 210300Z 34001MPS 9999 BKN036 09/08 Q1026 R29/CLRD70 NOSIG RMK QFE758/1011
TAF UWKD 210159Z 2103/2203 32003MPS 5000 BR SCT020 TX15/2112Z TN06/2201Z 
     TEMPO 2103/2104 VRB01MPS 0500 FG SCT005 
     BECMG 2105/2106 36007MPS 9999 NSW 
     BECMG 2110/2112 03005MPS
       
UNEE 210300Z 13005MPS 3200 -RA BR OVC001 07/07 Q1008 R23/290060 NOSIG RMK QBB040 QFE733
TAF UNEE 210200Z 2103/2203 12006MPS 9999 BKN020CB 
     TEMPO 2103/2106 3100 -SHRA BR BKN002 BKN015CB 
     BECMG 2106/2108 28005MPS 
     TEMPO 2106/2203 3100 -SHRA BKN011CB
       
USCC 210300Z 27004MPS CAVOK 10/08 Q1019 R27/000060 NOSIG RMK QFE744
TAF USCC 210200Z 2103/2203 31006MPS 9999 SCT030CB 
     TEMPO 2106/2115 3100 -SHRA BKN011CB
       
USCM 210300Z 31001MPS 9999 NSC 11/07 Q1021 R18/090065 NOSIG RMK QFE728
TAF USCM 210200Z 2103/2112 36004MPS 9999 SCT030 
     TEMPO 2103/2106 30003MPS 3100 BR
       
USHH 210300Z 03003MPS CAVOK 06/04 Q1019 R06/190060 TEMPO SCT005 RMK QFE761
TAF USHH 210200Z 2103/2203 02005G10MPS 4000 -SHRA BKN011CB 
     TEMPO 2103/2106 3100 BR SCT002 BKN004CB
       
USNN 210300Z 36003MPS CAVOK 05/05 Q1014 R03/0///65 NOSIG RMK QFE757
TAF USNN 210200Z 2103/2203 36003MPS 9999 BKN015 
     TEMPO 2103/2109 36005G12MPS 3000 -SHRA BR BKN007 SCT015CB
       
USPP 210300Z 32003MPS 290V350 9999 OVC018 09/06 Q1022 R21/290150 NOSIG RMK QFE755
TAF USPP 210158Z 2103/2203 33006MPS 9999 BKN011 OVC100 
     TEMPO 2103/2109 3100 -SHRA BR SCT005 BKN015CB 
     BECMG 2115/2117 03003MPS
       
USRR 210300Z 01003MPS 7000 NSC 06/05 Q1017 R25/290055 NOSIG RMK QFE757
TAF USRR 210155Z 2103/2203 01005G11MPS 9999 BKN020 
     TEMPO 2103/2109 3100 -SHRA BR BKN005 BKN015CB
       
USSS 210300Z 26004MPS 9999 SCT025 12/09 Q1018 R26R/010060 NOSIG RMK QFE743/0991
TAF USSS 210157Z 2103/2203 25004MPS 9999 BKN011 SCT020CB 
     BECMG 2103/2105 34006MPS 
     TEMPO 2105/2115 35011MPS 3100 -SHRA
       
USTR 210300Z 35005MPS 7000 -SHRA BKN004 OVC018CB 08/08 Q1016 R30/290060 TEMPO 1000 SHRA BR VV002 RMK QBB140 QFE753/1004
TAF USTR 210158Z 2103/2203 36005MPS 2100 -SHRA BR OVC005 BKN015CB 
     TEMPO 2103/2106 02010MPS 0800 +SHRA VV003 
     FM210600 01005G10MPS 9999 BKN011CB 
     TEMPO 2106/2115 03010MPS 3100 -SHRA OVC007 BKN011CB
       
UHSS 210300Z 02002MPS 300V090 9999 NSC 21/09 Q1006 R01/70D NOSIG RMK QFE753/1004
TAF UHSS 210200Z 2103/2209 34004MPS 9999 SCT030CB 
     BECMG 2123/2124 21004MPS
       
UMKK 210300Z 00000MPS 0100 R24/0350N FG SCT003 08/08 Q1019 R24/CLRD60 NOSIG RMK QBB100 OBST OBSC QFE763/1017
TAF UMKK 210200Z 2103/2203 04003G08MPS 2100 BR BKN011 
     TEMPO 2103/2108 VRB01MPS 0300 FG BKN002 
     BECMG 2108/2110 02005G11MPS 9999 NSW 
     BECMG 2113/2115 4000 -RA BR 
     TEMPO 2115/2203 2100 -SHRA BR BKN005 BKN013CB
       
UHWW 210300Z 28004MPS 230V310 9999 SCT043 24/11 Q1012 R25L/0///70 NOSIG RMK QFE758
TAF UHWW 210155Z 2103/2203 22003MPS 9999 SCT030 
     BECMG 2112/2114 12003MPS 
     BECMG 2121/2123 20003MPS
       
USSS 210300Z 26004MPS 9999 SCT025 12/09 Q1018 R26R/010060 NOSIG RMK QFE743/0991
TAF USSS 210157Z 2103/2203 25004MPS 9999 BKN011 SCT020CB 
     BECMG 2103/2105 34006MPS 
     TEMPO 2105/2115 35011MPS 3100 -SHRA
       
UNKL 210300Z 27002MPS 9999 SCT030CB 09/06 Q1013 R29/290255 NOSIG RMK QFE734
TAF UNKL 210154Z 2103/2203 20003G09MPS 9999 SCT020CB 
     TEMPO 2103/2115 3000 -SHRA SCT007 BKN015CB 
     FM211500 VRB01MPS 3000 BR BKN020CB 
     TEMPO 2115/2203 1000 -SHRA BR SCT007 BKN013CB
       
UUOK 210300Z 04002MPS 010V080 CAVOK 11/07 Q1019 R12/////// NOSIG RMK QFE746/0995
TAF UUOK 210200Z 2103/2112 08005G10MPS 9999 SCT020CB BKN033 
     TEMPO 2103/2106 04006MPS
       
UWWW 210300Z 01003MPS CAVOK 08/07 Q1025 R05/CLRD60 NOSIG RMK QFE755/1007
TAF UWWW 210157Z 2103/2203 02006MPS 9999 SCT030 BKN100 TX17/2111Z TN08/2202Z 
     TEMPO 2103/2124 36003G09MPS
       
USCM 210300Z 31001MPS 9999 NSC 11/07 Q1021 R18/090065 NOSIG RMK QFE728
TAF USCM 210200Z 2103/2112 36004MPS 9999 SCT030 
     TEMPO 2103/2106 30003MPS 3100 BR
       
URMM 210300Z 27003MPS 9999 NSC 14/10 Q1014 R12/090070 NOSIG RMK QFE732/0977
TAF URMM 210158Z 2103/2203 27003G08MPS 9999 NSC TX34/2112Z TN13/2203Z 
     TEMPO 2103/2106 3100 BR BKN011 
     BECMG 2106/2108 09003G08MPS 
     TEMPO 2108/2115 10005G12MPS
       
USCC 210300Z 27004MPS CAVOK 10/08 Q1019 R27/000060 NOSIG RMK QFE744
TAF USCC 210200Z 2103/2203 31006MPS 9999 SCT030CB 
     TEMPO 2106/2115 3100 -SHRA BKN011CB
       
USCM 210300Z 31001MPS 9999 NSC 11/07 Q1021 R18/090065 NOSIG RMK QFE728
TAF USCM 210200Z 2103/2112 36004MPS 9999 SCT030 
     TEMPO 2103/2106 30003MPS 3100 BR
       
USHH 210300Z 03003MPS CAVOK 06/04 Q1019 R06/190060 TEMPO SCT005 RMK QFE761
TAF USHH 210200Z 2103/2203 02005G10MPS 4000 -SHRA BKN011CB 
     TEMPO 2103/2106 3100 BR SCT002 BKN004CB
       
USNN 210300Z 36003MPS CAVOK 05/05 Q1014 R03/0///65 NOSIG RMK QFE757
TAF USNN 210200Z 2103/2203 36003MPS 9999 BKN015 
     TEMPO 2103/2109 36005G12MPS 3000 -SHRA BR BKN007 SCT015CB
       
USPP 210300Z 32003MPS 290V350 9999 OVC018 09/06 Q1022 R21/290150 NOSIG RMK QFE755
TAF USPP 210158Z 2103/2203 33006MPS 9999 BKN011 OVC100 
     TEMPO 2103/2109 3100 -SHRA BR SCT005 BKN015CB 
     BECMG 2115/2117 03003MPS
       
USRR 210300Z 01003MPS 7000 NSC 06/05 Q1017 R25/290055 NOSIG RMK QFE757
TAF USRR 210155Z 2103/2203 01005G11MPS 9999 BKN020 
     TEMPO 2103/2109 3100 -SHRA BR BKN005 BKN015CB
       
USSS 210300Z 26004MPS 9999 SCT025 12/09 Q1018 R26R/010060 NOSIG RMK QFE743/0991
TAF USSS 210157Z 2103/2203 25004MPS 9999 BKN011 SCT020CB 
     BECMG 2103/2105 34006MPS 
     TEMPO 2105/2115 35011MPS 3100 -SHRA
       
USTR 210300Z 35005MPS 7000 -SHRA BKN004 OVC018CB 08/08 Q1016 R30/290060 TEMPO 1000 SHRA BR VV002 RMK QBB140 QFE753/1004
TAF USTR 210158Z 2103/2203 36005MPS 2100 -SHRA BR OVC005 BKN015CB 
     TEMPO 2103/2106 02010MPS 0800 +SHRA VV003 
     FM210600 01005G10MPS 9999 BKN011CB 
     TEMPO 2106/2115 03010MPS 3100 -SHRA OVC007 BKN011CB
       
UIUU 210300Z 31007MPS 280V350 9999 BKN036CB 08/02 Q1004 R26/CLRD60 NOSIG RMK QFE709/0945
TAF UIUU 210200Z 2103/2203 34009G15MPS 9999 BKN020CB 
     TEMPO 2103/2115 30003G08MPS 
     BECMG 2115/2117 26003G08MPS
       
ULMM 210300Z 18001MPS 9999 BKN028 03/00 Q1036 R31/090070 NOSIG RMK QFE770
TAF ULMM 210150Z 2103/2203 21003MPS 9999 BKN020 
     TEMPO 2103/2107 VRB01MPS 3100 BR FEW002 SCT011 
     TEMPO 2107/2121 18003MPS SCT030 
     TEMPO 2121/2203 18003MPS 3100 BR SCT011
       
URMN 210300Z 24002MPS 9999 NSC 19/11 Q1014 R24/010070 NOSIG RMK QFE724
TAF URMN 210200Z 2103/2112 24003G08MPS 9999 BKN020 
     TEMPO 2103/2106 3100 BR BKN011
       
USNN 210300Z 36003MPS CAVOK 05/05 Q1014 R03/0///65 NOSIG RMK QFE757
TAF USNN 210200Z 2103/2203 36003MPS 9999 BKN015 
     TEMPO 2103/2109 36005G12MPS 3000 -SHRA BR BKN007 SCT015CB
       
UHHH 210300Z 26006MPS CAVOK 19/05 Q1008 R23L/090060 NOSIG RMK QFE750/1000
TAF UHHH 210144Z 2103/2209 26007MPS CAVOK 
     FM210800 21004MPS 9999 SCT020 
     BECMG 2116/2118 16003MPS
       
UWOO 210300Z 36002MPS CAVOK 13/07 Q1021 R26/CLRD65 NOSIG RMK QFE755/1007
TAF COR UWOO 210200Z 2103/2203 36006MPS 9999 SCT030 TX24/2111Z TN06/2201Z 
     TEMPO 2103/2203 01008MPS
       
UWOR 210300Z 31003MPS CAVOK 17/04 Q1020 R25/CLRD65 NOSIG RMK QFE741/0988
TAF UWOR 210200Z 2103/2112 28005G11MPS 9999 SCT040 
     TEMPO 2103/2109 30004G09MPS
       
URKK 210300Z 06002MPS CAVOK 19/11 Q1011 R05R/CLRD70 NOSIG RMK QFE755
TAF URKK 210155Z 2103/2203 06006G11MPS CAVOK 
     TEMPO 2106/2115 11006G11MPS
       
ULOO 210300Z 06002MPS 020V110 P5000 NSC 11/09 Q1024 NOSIG RMK QFE763
TAF ULOO 210307Z 2104/2112 07003G08MPS 6000 BKN011 BKN020 
     TEMPO 2106/2112 09006G12MPS 3100 -SHRA BKN007 BKN015CB
       
ULLI 210300Z 10001MPS 5000 1300E BR SCT002 06/06 Q1027 R10L/090060 NOSIG RMK QBB060 OBST OBSC
TAF ULLI 210159Z 2103/2203 10003MPS 0300 FG VV002 
     TEMPO 2103/2106 1200 BR BKN003 
     BECMG 2106/2108 6000 NSW BKN011 BKN025 
     BECMG 2108/2110 08005G10MPS 
     TEMPO 2108/2118 10008G14MPS 
     TEMPO 2118/2203 11008G14MPS 3100 -SHRA BKN007 BKN015CB
       
USTR 210300Z 35005MPS 7000 -SHRA BKN004 OVC018CB 08/08 Q1016 R30/290060 TEMPO 1000 SHRA BR VV002 RMK QBB140 QFE753/1004
TAF USTR 210158Z 2103/2203 36005MPS 2100 -SHRA BR OVC005 BKN015CB 
     TEMPO 2103/2106 02010MPS 0800 +SHRA VV003 
     FM210600 01005G10MPS 9999 BKN011CB 
     TEMPO 2106/2115 03010MPS 3100 -SHRA OVC007 BKN011CB
       
URRR 210300Z 06004MPS 8000 NSC 16/10 Q1014 R04/CLRD70 NOSIG RMK QFE754/1006
TAF URRR 210157Z 2103/2203 06005G11MPS 9999 SCT030 
     TEMPO 2103/2106 3100 BR SCT011 
     BECMG 2106/2108 09007G13MPS
       
UUEE 210300Z 06002MPS CAVOK 09/08 Q1027 R06R/CLRD62 NOSIG
TAF UUEE 210200Z 2103/2203 07003MPS 9000 BKN020 TX16/2112Z TN06/2203Z 
     TEMPO 2103/2109 -SHRA SCT005 BKN020CB 
     BECMG 2105/2107 08007MPS 
     TEMPO 2109/2203 08012MPS
       
URMT 210300Z 20002MPS CAVOK 16/08 Q1014 R07/010070 NOSIG RMK QFE721
TAF URMT 210200Z 2103/2112 14003G08MPS CAVOK 
     TEMPO 2108/2112 10006G11MPS
       
URSS 210300Z 05004MPS 350V080 9999 NSC 19/14 Q1010 WS ALL RWY R06/090070 R02/090070 NOSIG RMK R02/04004MPS QFE756
TAF URSS 210159Z 2103/2203 06006MPS 9999 NSC 
     TEMPO 2103/2107 03007MPS 
     BECMG 2107/2109 23005MPS 
     TEMPO 2107/2109 18005MPS 
     BECMG 2109/2111 28005G10MPS 
     BECMG 2116/2118 05005MPS
       
UHMM 210300Z 10003MPS 9999 -SHRA BKN032CB 09/07 Q1008 R10/250550 NOSIG RMK MT OBSC QFE741
TAF UHMM 210155Z 2103/2209 10003G08MPS 9999 -SHRA BKN025CB OVC070 
     FM210600 12003G11MPS 5000 -SHRA BR SCT011 BKN020CB OVC070 
     TEMPO 2106/2209 3100 -SHRA BR SCT005 OVC015CB
       
UWGG 210300Z 00000MPS 0900 0500NE R36L/0900D FG NSC 04/04 Q1028 R36L/090070 TEMPO 0300 FG RMK QFE764
TAF AMD UWGG 210220Z 2103/2203 36003MPS 4000 BR SCT015 TX15/2112Z TN07/2103Z 
     TEMPO 2103/2106 0300 FG
       
USRR 210300Z 01003MPS 7000 NSC 06/05 Q1017 R25/290055 NOSIG RMK QFE757
TAF USRR 210155Z 2103/2203 01005G11MPS 9999 BKN020 
     TEMPO 2103/2109 3100 -SHRA BR BKN005 BKN015CB
       
UUYY 210300Z 36003MPS 9999 SCT006 BKN040CB 04/03 Q1028 R01/19//55 NOSIG RMK QFE762/1016
TAF UUYY 210200Z 2103/2203 01003G08MPS 9999 BKN011 BKN015CB 
     TEMPO 2103/2106 03006MPS 2100 -SHRA BR BKN007 BKN011CB 
     TEMPO 2118/2203 1000 BR BKN005
       
ULAA 210300Z 08003MPS 9000 NSC M01/M01 Q1035 R08/CLRD70 TEMPO 1000 BR RMK QFE775/1034
TAF ULAA 210200Z 2103/2203 04005MPS 6000 SCT011 
     TEMPO 2103/2107 08003MPS 0400 FG SCT002 
     FM210900 09006MPS 9999 BKN015 
     TEMPO 2115/2120 13003MPS 3100 BR BKN011 
     TEMPO 2120/2203 15003MPS 0400 FG
       
UEEE 210300Z 26003MPS 9999 BKN018CB 04/00 Q1010 R23L/09//60 NOSIG RMK QFE749
TAF UEEE 210200Z 2103/2209 24003MPS 9999 BKN020CB OVC070 
     TEMPO 2103/2112 -SHRA SCT006 BKN015CB OVC070
       
UNNT 210300Z 20003MPS 9999 BKN010 OVC023 10/09 Q1004 R25/290160 R16/290160 NOSIG RMK QFE743/0991
TAF UNNT 210200Z 2103/2203 20003G08MPS 9999 -SHRA BKN010CB 
     TEMPO 2103/2106 3100 BR BKN005 OVC010CB 
     BECMG 2106/2108 29005G10MPS BKN015CB 
     FM211200 34003G08MPS 4000 -SHRA BR BKN011CB
       
UNOO 210300Z 30006MPS 9999 BKN021 11/07 Q1011 R25/290050 NOSIG RMK QFE750
TAF UNOO 210150Z 2103/2203 29010MPS 6000 SCT010 BKN030CB 
     TEMPO 2103/2112 -SHRA
       
UWSS 210300Z 01003MPS CAVOK 11/07 Q1023 R30/010095 NOSIG RMK QFE753
TAF UWSS 210200Z 2103/2112 03003G08MPS CAVOK 
     TEMPO 2103/2105 3100 BR SCT011 
     TEMPO 2105/2112 05007MPS
       
UUDL 210300Z 00000MPS 0300 R23/0450D FG VV002 06/05 Q1029 R23/010060 NOSIG RMK QFE763
TAF UUDL 210200Z 2103/2203 VRB01MPS 4000 BR SCT005 BKN015 
     TEMPO 2103/2107 0300 FG VV002
       
UWUU 210300Z 25004MPS CAVOK 08/06 Q1023 R32L/0///60 NOSIG RMK QFE755/1006
TAF UWUU 210148Z 2103/2203 30003G08MPS 9999 SCT030 
     TEMPO 2103/2112 34006G12MPS BKN020 
     TEMPO 2112/2121 36005G10MPS 3100 -SHRA BKN015CB
       
UHMA 210300Z 16005G08MPS 9999 FEW020 07/02 Q1024 R88/60D NOSIG RMK QFE763/1017
TAF UHMA 210151Z 2103/2203 14005MPS 9999 FEW030 
     BECMG 2118/2120 19003MPS 
     BECMG 2200/2202 27005MPS
       
URML 210300Z 22002MPS 9999 NSC 18/14 Q1013 R14/01//70 NOSIG RMK QFE760/1013
TAF URML 210200Z 2103/2112 15005G12MPS 5000 BR SCT012 
     TEMPO 2103/2106 3100 BR SCT007
       
URKA 210300Z AUTO 08003MPS 9999 // NCD 19/11 Q1010 RMK QFE753/1004
TAF URKA 210159Z 2103/2203 06003G08MPS CAVOK 
     BECMG 2107/2109 24003G08MPS
       
UUWW 210300Z 07002MPS 9999 -SHRA SCT040CB 11/08 Q1026 R06/290050 NOSIG
TAF UUWW 210200Z 2103/2203 07005MPS 9999 BKN020 TX15/2112Z TN10/2103Z 
     TEMPO 2103/2109 2500 -SHRA SCT005 SCT015CB 
     PROB40 
     TEMPO 2103/2106 -TSRA SCT015CB 
     TEMPO 2109/2124 09013MPS
       
UWLW 210300Z 25001MPS 4000 BR NSC 04/04 Q1026 R20/CLRD60 NOSIG RMK QFE764
TAF AMD UWLW 210130Z 2101/2124 35003MPS 4000 BR SCT030 
     TEMPO 2101/2104 0300 FG VV002 
     TEMPO 2106/2124 01009MPS
       
UEEE 210300Z 26003MPS 9999 BKN018CB 04/00 Q1010 R23L/09//60 NOSIG RMK QFE749
TAF UEEE 210200Z 2103/2209 24003MPS 9999 BKN020CB OVC070 
     TEMPO 2103/2112 -SHRA SCT006 BKN015CB OVC070
       
UHPP 210300Z 12007MPS 9999 -SHRA BKN040CB 11/09 Q1012 R16R/290155 NOSIG RMK MT OBSC QFE756/1008
TAF UHPP 210147Z 2103/2209 12005G15MPS 9999 BKN012 OVC025CB 
     TEMPO 2103/2107 3100 -SHRA BR BKN005 OVC012CB 
     TEMPO 2107/2122 1000 -SHRA BR VV003 
     FM212200 16003G12MPS 5000 -SHRA BKN011 OVC020CB 
     TEMPO 2122/2209 3100 -SHRA BR BKN004 OVC015CB